Time;durP1;ratioP1;P1;durP2;ratioP2;P2;SDS_P1;SDS_P2;PMS_P1;PMS_P2;Temp;Humidity;BMP_temperature;BMP_pressure;BME280_temperature;BME280_humidity;BME280_pressure;Samples;Min_cycle;Max_cycle;Signal;HPM_P1;HPM_P2
2020/12/29 00:02:08;;;;;;;21.40;10.55;;;;;;;9.19;78.33;100219.52;1744842;81;26315;-56
2020/12/29 00:04:37;;;;;;;19.55;9.88;;;;;;;9.13;78.26;100220.95;1705868;82;25751;-56
2020/12/29 00:07:06;;;;;;;17.50;10.15;;;;;;;9.06;78.00;100207.72;1726877;82;25609;-56
2020/12/29 00:09:35;;;;;;;20.55;9.95;;;;;;;9.01;78.13;100206.80;1731648;82;25687;-56
2020/12/29 00:12:02;;;;;;;27.20;11.10;;;;;;;8.97;78.31;100202.72;1764554;79;27530;-56
2020/12/29 00:14:30;;;;;;;21.82;11.93;;;;;;;8.91;78.51;100196.58;1791027;79;25744;-56
2020/12/29 00:16:58;;;;;;;23.00;11.28;;;;;;;8.86;79.05;100180.90;1797432;79;25786;-56
2020/12/29 00:19:28;;;;;;;24.12;11.78;;;;;;;8.80;79.57;100175.23;1792576;79;25648;-56
2020/12/29 00:21:58;;;;;;;22.52;9.85;;;;;;;8.74;79.99;100171.27;1792991;80;25822;-56
2020/12/29 00:24:26;;;;;;;20.50;11.73;;;;;;;8.69;80.42;100181.58;1794111;79;27528;-56
2020/12/29 00:26:56;;;;;;;20.52;10.55;;;;;;;8.69;80.35;100173.03;1723117;82;26632;-56
2020/12/29 00:29:24;;;;;;;23.75;9.65;;;;;;;8.66;80.52;100179.16;1759461;81;25751;-56
2020/12/29 00:31:53;;;;;;;26.97;10.95;;;;;;;8.62;80.53;100163.84;1730182;82;25721;-56
2020/12/29 00:34:21;;;;;;;16.50;9.40;;;;;;;8.56;80.68;100165.25;1767734;79;26067;-56
2020/12/29 00:36:52;;;;;;;22.02;10.55;;;;;;;8.53;80.73;100178.91;1730540;82;27987;-56
2020/12/29 00:39:20;;;;;;;21.55;10.32;;;;;;;8.54;81.18;100169.06;1729703;82;25728;-55
2020/12/29 00:41:48;;;;;;;23.67;9.73;;;;;;;8.46;80.63;100158.50;1723672;81;25460;-56
2020/12/29 00:44:15;;;;;;;16.82;8.80;;;;;;;8.43;80.77;100149.39;1723386;82;25622;-56
2020/12/29 00:46:44;;;;;;;23.95;10.53;;;;;;;8.42;80.92;100145.02;1772736;79;25734;-54
2020/12/29 00:49:11;;;;;;;16.93;9.55;;;;;;;8.38;81.03;100134.19;1726829;82;27595;-56
2020/12/29 00:51:39;;;;;;;16.65;8.65;;;;;;;8.36;81.02;100114.75;1729920;82;26133;-56
2020/12/29 00:54:07;;;;;;;11.63;6.75;;;;;;;8.34;81.04;100108.67;1729345;82;25741;-56
2020/12/29 00:56:37;;;;;;;16.48;6.85;;;;;;;8.33;81.28;100105.63;1727312;82;25764;-55
2020/12/29 00:59:05;;;;;;;13.43;7.00;;;;;;;8.33;81.26;100113.67;1735849;82;26088;-56
2020/12/29 01:01:34;;;;;;;11.50;6.22;;;;;;;8.35;81.23;100133.62;1735251;81;27633;-56
2020/12/29 01:04:17;;;;;;;13.20;8.05;;;;;;;8.43;81.38;100126.61;1827864;78;25585;-55
2020/12/29 01:06:45;;;;;;;11.73;6.90;;;;;;;8.41;81.41;100121.03;1803787;79;25698;-55
2020/12/29 01:09:15;;;;;;;15.20;5.55;;;;;;;8.46;81.40;100129.02;1800931;79;27977;-55
2020/12/29 01:11:43;;;;;;;19.10;7.37;;;;;;;8.53;81.25;100129.83;1804842;78;25650;-55
2020/12/29 01:14:12;;;;;;;12.73;6.85;;;;;;;8.57;81.23;100128.55;1794441;79;25726;-55
2020/12/29 01:16:46;;;;;;;13.62;6.62;;;;;;;8.63;81.21;100129.35;1802657;79;25733;-55
2020/12/29 01:19:15;;;;;;;11.40;5.62;;;;;;;8.72;81.15;100127.65;1800654;79;25796;-55
2020/12/29 01:21:43;;;;;;;14.70;5.78;;;;;;;8.79;80.95;100124.75;1800609;79;27515;-55
2020/12/29 01:24:11;;;;;;;12.55;5.75;;;;;;;8.86;80.78;100110.30;1799682;79;26532;-55
2020/12/29 01:26:39;;;;;;;13.50;5.53;;;;;;;8.92;80.49;100111.06;1800375;79;25779;-55
2020/12/29 01:29:07;;;;;;;11.00;6.15;;;;;;;8.97;80.28;100121.36;1805945;78;26607;-54
2020/12/29 01:31:36;;;;;;;13.40;6.50;;;;;;;9.02;80.45;100125.83;1800572;79;25680;-55
2020/12/29 01:34:04;;;;;;;11.38;5.95;;;;;;;9.08;80.43;100128.80;1804787;79;27516;-55
2020/12/29 01:36:31;;;;;;;11.95;5.78;;;;;;;9.13;80.29;100118.12;1800985;79;26078;-54
2020/12/29 01:39:00;;;;;;;11.25;5.85;;;;;;;9.19;80.23;100104.98;1740087;82;25686;-55
2020/12/29 01:41:27;;;;;;;8.63;5.12;;;;;;;9.19;79.92;100096.93;1737371;82;25690;-54
2020/12/29 01:43:56;;;;;;;11.73;5.80;;;;;;;9.20;79.63;100097.28;1740501;80;25835;-54
2020/12/29 01:46:24;;;;;;;10.72;5.30;;;;;;;9.21;79.82;100103.48;1738568;82;27541;-55
2020/12/29 01:48:52;;;;;;;16.20;6.47;;;;;;;9.23;79.40;100105.02;1772672;79;26270;-55
2020/12/29 01:51:19;;;;;;;12.85;5.60;;;;;;;9.24;79.61;100103.20;1785254;79;25561;-55
2020/12/29 01:53:49;;;;;;;15.18;6.15;;;;;;;9.26;79.02;100105.26;1736871;82;26060;-55
2020/12/29 01:56:16;;;;;;;9.78;5.50;;;;;;;9.22;79.23;100110.07;1743939;81;25667;-55
2020/12/29 01:58:45;;;;;;;11.57;5.03;;;;;;;9.22;78.89;100122.15;1782243;79;28454;-55
2020/12/29 02:01:14;;;;;;;9.53;5.42;;;;;;;9.22;78.79;100114.09;1740453;79;25717;-55
2020/12/29 02:03:43;;;;;;;14.23;4.70;;;;;;;9.23;78.97;100106.88;1774166;79;26402;-55
2020/12/29 02:06:11;;;;;;;10.95;4.83;;;;;;;9.24;78.68;100095.98;1797923;78;25663;-55
2020/12/29 02:08:40;;;;;;;11.43;4.67;;;;;;;9.26;78.51;100094.52;1802438;79;25610;-55
2020/12/29 02:11:09;;;;;;;10.93;5.42;;;;;;;9.26;78.48;100094.52;1802579;78;27611;-54
2020/12/29 02:13:42;;;;;;;9.83;5.30;;;;;;;9.27;78.80;100084.14;1804946;79;25731;-57
2020/12/29 02:16:10;;;;;;;11.60;5.85;;;;;;;9.31;78.71;100086.88;1737576;81;25801;-57
2020/12/29 02:18:38;;;;;;;11.85;5.53;;;;;;;9.32;78.55;100091.25;1798098;79;25676;-57
2020/12/29 02:21:06;;;;;;;10.18;5.58;;;;;;;9.34;78.05;100093.78;1801789;79;26297;-57
2020/12/29 02:23:34;;;;;;;9.98;4.87;;;;;;;9.34;78.14;100094.64;1801360;78;27324;-57
2020/12/29 02:26:02;;;;;;;13.60;4.92;;;;;;;9.33;77.86;100085.38;1805966;78;26142;-57
2020/12/29 02:28:30;;;;;;;11.22;3.92;;;;;;;9.33;77.88;100085.38;1796904;79;25485;-57
2020/12/29 02:30:58;;;;;;;8.23;4.10;;;;;;;9.30;77.76;100089.20;1800802;79;26534;-57
2020/12/29 02:33:26;;;;;;;11.53;4.35;;;;;;;9.28;77.78;100087.66;1797215;79;25727;-57
2020/12/29 02:35:54;;;;;;;11.05;4.58;;;;;;;9.29;78.00;100085.33;1796828;79;27534;-57
2020/12/29 02:38:23;;;;;;;11.15;4.33;;;;;;;9.29;77.90;100091.53;1803021;79;25634;-57
2020/12/29 02:40:52;;;;;;;9.00;4.05;;;;;;;9.29;77.85;100083.98;1763128;80;25723;-56
2020/12/29 02:43:20;;;;;;;10.25;4.80;;;;;;;9.30;77.64;100081.14;1797199;79;25770;-57
2020/12/29 02:45:48;;;;;;;9.03;4.12;;;;;;;9.28;77.66;100075.58;1800237;78;25675;-57
2020/12/29 02:48:16;;;;;;;8.40;4.40;;;;;;;9.26;77.78;100067.69;1799462;79;27636;-57
2020/12/29 02:50:44;;;;;;;10.20;4.58;;;;;;;9.27;77.73;100069.38;1802303;78;25667;-56
2020/12/29 02:53:12;;;;;;;10.08;4.62;;;;;;;9.24;78.04;100064.29;1731363;82;26328;-55
2020/12/29 02:55:39;;;;;;;8.85;4.55;;;;;;;9.26;77.70;100059.63;1803410;79;25752;-55
2020/12/29 02:58:07;;;;;;;8.03;4.42;;;;;;;9.26;77.62;100059.63;1804144;79;25793;-55
2020/12/29 03:00:36;;;;;;;18.77;5.47;;;;;;;9.25;77.79;100055.25;1799401;79;27503;-58
2020/12/29 03:03:04;;;;;;;10.15;4.97;;;;;;;9.25;77.48;100036.47;1806070;78;25693;-55
2020/12/29 03:05:33;;;;;;;15.10;6.03;;;;;;;9.24;77.54;100042.82;1799315;79;25679;-55
2020/12/29 03:08:01;;;;;;;15.93;5.35;;;;;;;9.20;77.55;100048.98;1765856;79;26188;-55
2020/12/29 03:10:29;;;;;;;16.15;4.87;;;;;;;9.19;77.68;100053.13;1768142;79;25693;-55
2020/12/29 03:12:56;;;;;;;9.33;5.00;;;;;;;9.17;77.68;100053.28;1801914;79;27581;-55
2020/12/29 03:15:24;;;;;;;6.55;3.75;;;;;;;9.15;77.73;100039.66;1801467;79;25693;-55
2020/12/29 03:17:52;;;;;;;11.57;5.37;;;;;;;9.11;77.67;100048.50;1796018;79;26136;-55
2020/12/29 03:20:20;;;;;;;7.70;4.33;;;;;;;9.05;77.69;100045.06;1736930;82;26606;-55
2020/12/29 03:22:49;;;;;;;13.30;4.58;;;;;;;8.99;77.80;100046.48;1802714;78;25696;-55
2020/12/29 03:25:17;;;;;;;9.83;4.42;;;;;;;8.97;77.98;100046.25;1800944;78;27539;-55
2020/12/29 03:27:45;;;;;;;8.85;4.37;;;;;;;8.95;78.11;100065.19;1800245;79;26135;-55
2020/12/29 03:30:13;;;;;;;13.40;5.35;;;;;;;8.95;78.02;100074.57;1799800;79;25707;-55
2020/12/29 03:32:41;;;;;;;14.43;6.28;;;;;;;8.95;78.14;100086.64;1740643;82;26174;-54
2020/12/29 03:35:09;;;;;;;9.70;5.35;;;;;;;8.97;78.02;100109.30;1765770;80;25700;-55
2020/12/29 03:37:37;;;;;;;7.85;4.20;;;;;;;8.98;78.00;100109.17;1801886;79;28430;-55
2020/12/29 03:40:05;;;;;;;8.93;4.25;;;;;;;8.99;78.04;100083.18;1799758;79;25748;-55
2020/12/29 03:42:33;;;;;;;12.45;4.33;;;;;;;9.03;77.71;100084.60;1800472;79;25708;-55
2020/12/29 03:45:02;;;;;;;11.28;4.60;;;;;;;9.05;77.44;100094.19;1799355;79;25613;-55
2020/12/29 03:47:31;;;;;;;8.48;4.42;;;;;;;9.05;77.17;100092.02;1800387;79;26144;-54
2020/12/29 03:49:59;;;;;;;12.47;5.35;;;;;;;9.02;77.08;100089.10;1800868;79;27592;-55
2020/12/29 03:52:27;;;;;;;11.95;4.90;;;;;;;8.99;77.18;100084.05;1797703;79;25702;-55
2020/12/29 03:54:54;;;;;;;8.30;5.00;;;;;;;8.96;77.41;100075.44;1801162;79;25643;-55
2020/12/29 03:57:22;;;;;;;10.50;5.00;;;;;;;8.92;77.47;100066.32;1800206;79;25748;-55
2020/12/29 03:59:50;;;;;;;11.10;4.58;;;;;;;8.92;77.58;100067.66;1737451;81;25790;-55
2020/12/29 04:02:18;;;;;;;7.70;4.72;;;;;;;8.93;77.39;100063.13;1734304;81;27982;-55
2020/12/29 04:04:46;;;;;;;14.40;5.25;;;;;;;8.91;77.26;100058.43;1760238;80;25707;-55
2020/12/29 04:07:14;;;;;;;10.63;5.03;;;;;;;8.90;77.25;100054.88;1723520;82;25742;-55
2020/12/29 04:09:42;;;;;;;7.08;4.15;;;;;;;8.90;77.27;100055.39;1727944;82;25621;-55
2020/12/29 04:12:10;;;;;;;13.28;4.70;;;;;;;8.91;77.38;100046.36;1729695;82;25729;-55
2020/12/29 04:14:38;;;;;;;9.63;5.40;;;;;;;8.89;77.24;100032.23;1720807;82;27715;-55
2020/12/29 04:17:06;;;;;;;13.08;5.40;;;;;;;8.87;77.20;100032.39;1734985;82;25712;-55
2020/12/29 04:19:34;;;;;;;16.30;6.97;;;;;;;8.84;77.15;100033.14;1729722;82;25757;-54
2020/12/29 04:22:02;;;;;;;8.75;5.08;;;;;;;8.81;77.27;100025.41;1735942;82;25721;-55
2020/12/29 04:24:29;;;;;;;12.37;4.85;;;;;;;8.79;77.13;100028.72;1730252;82;25783;-54
2020/12/29 04:26:57;;;;;;;9.63;4.80;;;;;;;8.71;77.17;100019.55;1734696;82;28405;-55
2020/12/29 04:29:25;;;;;;;8.85;4.95;;;;;;;8.68;77.01;100016.31;1728111;82;25948;-55
2020/12/29 04:31:53;;;;;;;11.85;5.90;;;;;;;8.62;77.17;100007.00;1727342;82;25440;-55
2020/12/29 04:34:21;;;;;;;10.20;6.30;;;;;;;8.59;77.47;100009.48;1732062;82;25799;-55
2020/12/29 04:36:56;;;;;;;9.63;5.55;;;;;;;8.57;77.38;100003.88;1733064;81;25796;-55
2020/12/29 04:39:24;;;;;;;12.68;5.78;;;;;;;8.53;77.29;99992.60;1731059;82;27531;-54
2020/12/29 04:41:56;;;;;;;14.75;6.67;;;;;;;8.50;77.33;99984.00;1732528;82;25673;-55
2020/12/29 04:44:24;;;;;;;13.13;6.87;;;;;;;8.45;77.33;99970.52;1792186;79;25730;-56
2020/12/29 04:46:52;;;;;;;15.93;7.17;;;;;;;8.44;77.69;99969.30;1789797;79;25698;-55
2020/12/29 04:49:22;;;;;;;15.18;6.95;;;;;;;8.43;77.70;99968.94;1789567;79;26050;-55
2020/12/29 04:51:51;;;;;;;11.75;7.10;;;;;;;8.42;77.64;99961.92;1788766;79;27518;-55
2020/12/29 04:54:20;;;;;;;20.60;7.15;;;;;;;8.38;77.59;99967.20;1791082;79;26159;-55
2020/12/29 04:56:55;;;;;;;16.17;6.87;;;;;;;8.36;77.67;99963.80;1725543;81;25588;-55
2020/12/29 04:59:23;;;;;;;9.48;6.85;;;;;;;8.36;77.68;99962.46;1730754;82;25615;-55
2020/12/29 05:01:51;;;;;;;14.98;7.90;;;;;;;8.33;77.68;99963.59;1730963;82;26069;-55
2020/12/29 05:04:21;;;;;;;11.68;6.65;;;;;;;8.31;77.61;99968.25;1721948;81;27518;-55
2020/12/29 05:06:53;;;;;;;18.20;8.28;;;;;;;8.28;77.47;99972.57;1742154;81;26079;-55
2020/12/29 05:09:22;;;;;;;16.90;8.38;;;;;;;8.24;77.41;99975.16;1743737;81;25512;-55
2020/12/29 05:11:51;;;;;;;12.82;5.87;;;;;;;8.17;77.29;99964.16;1724347;82;26423;-55
2020/12/29 05:14:23;;;;;;;15.95;6.60;;;;;;;8.11;77.15;99970.91;1717397;82;25730;-55
2020/12/29 05:16:51;;;;;;;12.98;6.65;;;;;;;8.07;76.92;99962.82;1749880;80;28509;-55
2020/12/29 05:19:21;;;;;;;6.95;4.50;;;;;;;8.02;77.04;99957.53;1743130;81;25838;-55
2020/12/29 05:21:50;;;;;;;11.15;5.35;;;;;;;7.98;76.87;99954.28;1723681;82;25708;-55
2020/12/29 05:24:22;;;;;;;10.90;3.35;;;;;;;7.97;76.96;99950.77;1725194;81;25698;-55
2020/12/29 05:26:57;;;;;;;12.68;4.12;;;;;;;7.97;76.31;99940.53;1724510;82;25756;-55
2020/12/29 05:29:26;;;;;;;5.62;3.25;;;;;;;7.99;76.21;99942.59;1745060;81;28460;-55
2020/12/29 05:31:54;;;;;;;9.93;3.40;;;;;;;7.99;75.74;99929.20;1726752;82;25724;-55
2020/12/29 05:34:27;;;;;;;7.40;3.05;;;;;;;8.01;76.03;99924.55;1743407;81;25717;-55
2020/12/29 05:36:59;;;;;;;11.50;4.60;;;;;;;8.03;75.83;99924.40;1724294;82;25978;-55
2020/12/29 05:39:30;;;;;;;10.15;4.40;;;;;;;8.02;76.08;99944.13;1724631;82;26237;-55
2020/12/29 05:42:02;;;;;;;9.33;4.42;;;;;;;8.00;76.35;99936.25;1742737;80;27572;-55
2020/12/29 05:44:35;;;;;;;13.32;4.92;;;;;;;7.97;76.24;99925.80;1697179;82;27192;-55
2020/12/29 05:47:04;;;;;;;15.30;5.87;;;;;;;7.95;76.27;99920.59;1725509;82;25665;-55
2020/12/29 05:49:34;;;;;;;9.23;4.75;;;;;;;7.93;76.28;99915.03;1722926;82;25683;-55
2020/12/29 05:52:03;;;;;;;12.40;4.67;;;;;;;7.91;76.23;99919.68;1742339;81;26728;-55
2020/12/29 05:54:36;;;;;;;20.50;10.25;;;;;;;7.92;76.52;99908.81;1699479;82;27976;-55
2020/12/29 05:57:05;;;;;;;9.88;3.37;;;;;;;7.95;75.95;99917.05;1723327;82;26191;-55
2020/12/29 05:59:34;;;;;;;8.03;2.83;;;;;;;7.97;74.63;99906.58;1726881;82;25624;-56
2020/12/29 06:02:02;;;;;;;6.17;2.33;;;;;;;8.01;74.06;99923.69;1743617;81;26021;-55
2020/12/29 06:04:31;;;;;;;6.78;2.65;;;;;;;8.03;74.49;99919.05;1723350;81;25752;-56
2020/12/29 06:07:04;;;;;;;7.20;3.02;;;;;;;8.07;73.43;99941.90;1753310;81;27438;-55
2020/12/29 06:09:35;;;;;;;25.92;12.88;;;;;;;8.08;73.33;99948.92;1746990;81;33082;-55
2020/12/29 06:12:08;;;;;;;17.95;5.67;;;;;;;8.11;72.19;99973.59;1734853;82;25813;-56
2020/12/29 06:14:43;;;;;;;9.85;4.85;;;;;;;8.15;72.33;99988.42;1730747;81;26489;-56
2020/12/29 06:17:16;;;;;;;12.73;3.20;;;;;;;8.18;72.60;99996.66;1734945;82;25751;-56
2020/12/29 06:19:49;;;;;;;9.78;3.60;;;;;;;8.17;72.56;100007.02;1731506;82;28047;-55
2020/12/29 06:22:19;;;;;;;9.03;4.12;;;;;;;8.13;72.82;100015.83;1732841;81;26078;-57
2020/12/29 06:24:47;;;;;;;9.95;4.42;;;;;;;8.05;73.08;99999.61;1723353;81;25792;-57
2020/12/29 06:27:15;;;;;;;9.10;3.85;;;;;;;7.94;73.18;100004.60;1751679;79;26951;-56
2020/12/29 06:29:45;;;;;;;11.65;4.28;;;;;;;7.86;73.49;99988.38;1768442;79;25467;-57
2020/12/29 06:32:19;;;;;;;9.53;4.35;;;;;;;7.84;74.05;99991.69;1721301;82;27433;-56
2020/12/29 06:34:48;;;;;;;7.50;2.25;;;;;;;7.78;74.16;99985.55;1757216;79;25705;-56
2020/12/29 06:37:40;;;;;;;4.95;2.62;;;;;;;7.81;74.11;99987.45;1725492;82;25467;-56
2020/12/29 06:40:10;;;;;;;11.57;3.42;;;;;;;7.91;73.64;100005.38;1737629;81;25607;-56
2020/12/29 06:42:42;;;;;;;4.20;2.40;;;;;;;8.02;74.04;100007.94;1755113;79;25874;-56
2020/12/29 06:45:12;;;;;;;12.78;4.80;;;;;;;8.13;73.44;100003.78;1735675;81;27519;-56
2020/12/29 06:47:46;;;;;;;8.98;4.67;;;;;;;8.23;72.45;100004.28;1738549;79;25530;-56
2020/12/29 06:50:22;;;;;;;;;;;;;;;8.23;73.08;100004.28;1768689;81;25798;-57
2020/12/29 06:52:56;;;;;;;8.80;4.42;;;;;;;8.22;73.24;99999.91;1735189;82;26624;-56
2020/12/29 06:55:37;;;;;;;5.95;2.83;;;;;;;8.20;72.56;100007.27;1759684;81;25442;-56
2020/12/29 06:58:06;;;;;;;13.62;4.67;;;;;;;8.25;71.90;100004.48;1765962;81;28479;-57
2020/12/29 07:00:35;;;;;;;8.88;2.40;;;;;;;8.32;71.75;99988.70;1765799;81;25770;-56
2020/12/29 07:03:04;;;;;;;3.45;2.30;;;;;;;8.42;71.20;99989.55;1731532;82;26086;-56
2020/12/29 07:05:37;;;;;;;7.50;1.98;;;;;;;8.51;70.63;99981.67;1717412;81;25860;-56
2020/12/29 07:08:07;;;;;;;6.17;2.17;;;;;;;8.58;70.11;99982.31;1770092;80;25685;-56
2020/12/29 07:10:45;;;;;;;8.25;2.50;;;;;;;8.65;70.18;99969.67;1771384;79;28460;-56
2020/12/29 07:13:18;;;;;;;5.65;2.20;;;;;;;8.70;69.81;99974.09;1798874;79;26493;-57
2020/12/29 07:15:54;;;;;;;9.48;3.60;;;;;;;8.75;69.66;99975.87;1776722;79;25705;-56
2020/12/29 07:18:28;;;;;;;8.45;3.47;;;;;;;8.78;69.51;99979.61;1770225;79;26767;-55
2020/12/29 07:20:58;;;;;;;5.03;2.72;;;;;;;8.82;69.18;99988.21;1770221;79;25459;-56
2020/12/29 07:23:28;;;;;;;9.13;2.20;;;;;;;8.86;69.59;99988.25;1770121;81;27570;-55
2020/12/29 07:26:02;;;;;;;9.70;4.08;;;;;;;8.87;68.32;99986.80;1773664;79;26085;-56
2020/12/29 07:28:30;;;;;;;9.48;2.70;;;;;;;8.90;68.43;99999.89;1770207;81;25440;-56
2020/12/29 07:30:59;;;;;;;8.53;3.00;;;;;;;8.93;68.39;100005.45;1770086;81;26627;-56
2020/12/29 07:33:27;;;;;;;7.87;2.40;;;;;;;8.93;67.74;100021.08;1770054;81;25632;-56
2020/12/29 07:35:55;;;;;;;5.62;2.50;;;;;;;8.93;68.57;100022.89;1770038;81;27436;-56
2020/12/29 07:38:25;;;;;;;3.12;2.45;;;;;;;8.94;68.19;100039.34;1769961;81;26183;-56
2020/12/29 07:40:55;;;;;;;4.87;2.25;;;;;;;8.93;68.83;100036.31;1784612;79;25631;-56
2020/12/29 07:43:23;;;;;;;4.33;1.87;;;;;;;8.96;68.82;100038.72;1792164;80;25701;-56
2020/12/29 07:45:50;;;;;;;5.25;2.12;;;;;;;9.02;69.23;100051.55;1792047;79;25651;-57
2020/12/29 07:48:18;;;;;;;8.45;2.25;;;;;;;9.10;69.73;100053.52;1724334;82;27956;-56
2020/12/29 07:50:46;;;;;;;12.13;2.92;;;;;;;9.17;69.89;100062.67;1728873;81;25637;-55
2020/12/29 07:53:14;;;;;;;5.25;1.92;;;;;;;9.24;69.43;100066.47;1750807;81;25629;-56
2020/12/29 07:55:45;;;;;;;6.90;2.12;;;;;;;9.32;69.15;100050.98;1750669;81;25711;-56
2020/12/29 07:58:13;;;;;;;7.37;3.15;;;;;;;9.45;67.75;100049.83;1750993;81;25613;-56
2020/12/29 08:00:41;;;;;;;10.40;2.95;;;;;;;9.54;68.44;100052.47;1750732;81;27599;-56
2020/12/29 08:03:09;;;;;;;9.60;2.52;;;;;;;9.64;67.99;100055.09;1736073;81;26117;-57
2020/12/29 08:05:39;;;;;;;11.38;2.92;;;;;;;9.72;68.09;100040.95;1755860;81;26433;-54
2020/12/29 08:08:09;;;;;;;6.15;2.98;;;;;;;9.83;68.73;100055.53;1738416;82;25770;-56
2020/12/29 08:10:47;;;;;;;5.62;2.72;;;;;;;9.92;68.06;100056.45;1737772;82;25672;-56
2020/12/29 08:13:22;;;;;;;5.12;2.33;;;;;;;10.01;67.04;100064.13;1803542;79;27595;-56
2020/12/29 08:15:50;;;;;;;6.15;2.30;;;;;;;10.13;67.21;100063.42;1791246;79;26178;-56
2020/12/29 08:18:20;;;;;;;16.75;3.08;;;;;;;10.31;67.28;100071.50;1770006;81;25710;-56
2020/12/29 08:20:57;;;;;;;9.75;2.55;;;;;;;10.69;66.67;100072.25;1770021;81;25713;-57
2020/12/29 08:23:28;;;;;;;7.65;2.30;;;;;;;11.36;64.42;100054.27;1770110;81;25652;-56
2020/12/29 08:25:59;;;;;;;8.20;2.80;;;;;;;12.17;61.71;100060.72;1769812;81;28427;-55
2020/12/29 08:28:33;;;;;;;10.50;3.30;;;;;;;12.83;60.60;100072.45;1769771;81;25792;-55
2020/12/29 08:31:04;;;;;;;16.37;6.40;;;;;;;13.47;57.26;100069.54;1770047;81;25656;-56
2020/12/29 08:33:33;;;;;;;15.45;3.15;;;;;;;13.99;55.23;100072.25;1769795;81;25870;-56
2020/12/29 08:36:03;;;;;;;19.37;6.62;;;;;;;14.53;52.90;100075.48;1770617;78;25908;-56
2020/12/29 08:39:03;;;;;;;5.75;2.50;;;;;;;15.01;51.22;100069.94;1810111;79;27951;-56
2020/12/29 08:41:41;;;;;;;6.90;2.45;;;;;;;15.52;51.84;100067.56;1785216;78;26097;-56
2020/12/29 08:44:12;;;;;;;14.53;3.83;;;;;;;16.13;53.39;100066.02;1727274;82;25778;-56
2020/12/29 08:46:40;;;;;;;7.62;2.50;;;;;;;16.72;50.01;100058.71;1757298;81;25628;-56
2020/12/29 08:49:08;;;;;;;3.70;1.80;;;;;;;17.09;47.12;100071.72;1734892;82;26066;-56
2020/12/29 08:51:42;;;;;;;10.80;2.47;;;;;;;17.17;46.03;100074.30;1757968;81;27543;-56
2020/12/29 08:54:20;;;;;;;7.53;2.90;;;;;;;17.00;47.53;100071.53;1748757;81;25531;-55
2020/12/29 08:56:49;;;;;;;14.25;3.02;;;;;;;17.10;48.73;100067.97;1735835;82;25757;-55
2020/12/29 08:59:19;;;;;;;5.72;2.10;;;;;;;17.42;48.78;100067.08;1758133;81;25949;-57
2020/12/29 09:01:57;;;;;;;7.30;2.77;;;;;;;17.74;48.07;100067.47;1748485;81;25751;-56
2020/12/29 09:04:42;;;;;;;20.37;6.03;;;;;;;17.73;48.52;100067.14;1758706;81;28395;-56
2020/12/29 09:07:13;;;;;;;12.63;2.77;;;;;;;18.06;47.75;100070.61;1743722;82;25775;-56
2020/12/29 09:09:56;;;;;;;5.42;2.45;;;;;;;18.36;45.80;100073.53;1799010;79;25586;-56
2020/12/29 09:12:32;;;;;;;8.28;1.82;;;;;;;17.72;47.25;100069.55;1829990;78;25643;-56
2020/12/29 09:15:09;;;;;;;8.48;2.12;;;;;;;18.32;42.74;100062.22;1783952;79;26950;-57
2020/12/29 09:17:42;;;;;;;7.53;2.33;;;;;;;18.90;41.20;100055.39;1817718;78;26190;-57
2020/12/29 09:20:18;;;;;;;4.85;2.00;;;;;;;19.47;39.04;100063.16;1749616;81;25673;-56
2020/12/29 09:23:09;;;;;;;8.38;2.25;;;;;;;19.89;39.73;100058.80;1745993;81;26329;-56
2020/12/29 09:25:45;;;;;;;6.65;1.98;;;;;;;20.30;39.11;100073.43;1744247;82;25514;-57
2020/12/29 09:28:25;;;;;;;7.40;2.15;;;;;;;20.70;39.45;100079.19;1726170;81;25677;-56
2020/12/29 09:31:07;;;;;;;10.38;1.90;;;;;;;21.09;38.43;100081.34;1730613;82;29389;-57
2020/12/29 09:33:38;;;;;;;10.53;1.80;;;;;;;21.48;37.56;100092.14;1770990;80;25639;-57
2020/12/29 09:36:24;;;;;;;7.15;1.70;;;;;;;21.70;36.79;100105.45;1752641;80;25805;-56
2020/12/29 09:38:55;;;;;;;6.37;1.55;;;;;;;21.83;36.52;100106.66;1763301;80;25587;-57
2020/12/29 09:41:23;;;;;;;4.60;1.80;;;;;;;22.03;36.94;100109.20;1801529;78;25694;-57
2020/12/29 09:43:51;;;;;;;12.70;2.50;;;;;;;22.04;36.48;100112.77;1819071;78;28016;-57
2020/12/29 09:46:19;;;;;;;11.05;2.30;;;;;;;22.37;37.39;100108.77;1818602;78;25767;-57
2020/12/29 09:48:47;;;;;;;6.97;2.02;;;;;;;22.93;35.15;100109.52;1806701;78;25706;-57
2020/12/29 09:51:15;;;;;;;6.58;2.37;;;;;;;23.33;33.86;100125.89;1780866;80;25674;-57
2020/12/29 09:53:43;;;;;;;12.65;1.95;;;;;;;23.56;34.25;100126.45;1780790;80;25699;-57
2020/12/29 09:56:21;;;;;;;11.50;2.50;;;;;;;23.92;33.49;100126.42;1780956;80;27610;-57
2020/12/29 09:58:49;;;;;;;4.50;2.00;;;;;;;24.34;33.68;100128.98;1815414;78;26538;-57
2020/12/29 10:01:17;;;;;;;6.47;1.92;;;;;;;24.66;34.03;100129.89;1748096;81;25795;-57
2020/12/29 10:03:45;;;;;;;9.70;1.90;;;;;;;25.21;32.80;100131.73;1746104;82;26284;-57
2020/12/29 10:06:15;;;;;;;8.20;1.80;;;;;;;25.42;32.75;100127.95;1741451;81;26225;-57
2020/12/29 10:08:43;;;;;;;14.23;2.55;;;;;;;25.61;29.92;100122.47;1735264;82;27549;-56
2020/12/29 10:11:12;;;;;;;6.40;1.60;;;;;;;25.73;27.74;100119.61;1756860;81;25719;-57
2020/12/29 10:13:40;;;;;;;10.10;2.50;;;;;;;25.62;29.39;100114.50;1766051;81;25739;-57
2020/12/29 10:16:08;;;;;;;8.10;2.22;;;;;;;25.82;29.25;100122.78;1765897;81;25650;-57
2020/12/29 10:18:35;;;;;;;12.07;2.45;;;;;;;25.93;29.80;100123.22;1766103;81;25624;-57
2020/12/29 10:21:05;;;;;;;5.22;2.72;;;;;;;26.06;29.19;100121.16;1742726;81;27536;-57
2020/12/29 10:23:33;;;;;;;5.70;2.42;;;;;;;26.24;27.89;100122.25;1765816;81;25859;-57
2020/12/29 10:26:01;;;;;;;7.47;2.45;;;;;;;25.76;29.84;100116.91;1734701;81;25780;-57
2020/12/29 10:28:30;;;;;;;9.60;3.10;;;;;;;25.33;30.01;100119.26;1758414;81;25756;-57
2020/12/29 10:30:58;;;;;;;13.35;4.33;;;;;;;24.49;30.05;100122.95;1766059;80;25713;-57
2020/12/29 10:33:27;;;;;;;13.30;2.98;;;;;;;23.28;31.20;100125.75;1766023;80;26684;-56
2020/12/29 10:35:54;;;;;;;8.53;3.20;;;;;;;22.29;32.60;100137.86;1766006;81;26055;-56
2020/12/29 10:38:22;;;;;;;12.07;2.58;;;;;;;21.73;33.26;100140.05;1765977;81;25643;-56
2020/12/29 10:40:50;;;;;;;6.47;2.50;;;;;;;21.23;34.55;100131.30;1761160;80;25688;-57
2020/12/29 10:43:18;;;;;;;15.78;2.65;;;;;;;21.60;35.05;100133.86;1766139;81;25480;-57
2020/12/29 10:45:46;;;;;;;9.80;2.12;;;;;;;22.42;32.71;100135.00;1766084;81;27975;-57
2020/12/29 10:48:14;;;;;;;13.25;2.95;;;;;;;22.94;32.94;100125.42;1765965;81;25671;-56
2020/12/29 10:50:42;;;;;;;19.32;7.12;;;;;;;23.59;32.74;100125.13;1765981;81;25735;-57
2020/12/29 10:53:11;;;;;;;20.68;4.20;;;;;;;24.14;31.05;100122.53;1766082;81;26448;-57
2020/12/29 10:55:39;;;;;;;13.40;3.85;;;;;;;24.64;29.89;100119.67;1766122;81;25660;-57
2020/12/29 10:58:07;;;;;;;8.23;2.70;;;;;;;25.02;30.34;100115.16;1765258;81;27588;-57
2020/12/29 11:00:34;;;;;;;14.38;3.15;;;;;;;25.53;26.04;100113.81;1735396;82;25704;-57
2020/12/29 11:03:02;;;;;;;4.33;1.75;;;;;;;25.50;25.70;100109.66;1735474;82;25663;-57
2020/12/29 11:05:30;;;;;;;6.67;2.33;;;;;;;25.53;23.75;100116.02;1735580;82;25734;-57
2020/12/29 11:07:58;;;;;;;13.90;2.58;;;;;;;25.33;23.77;100109.62;1735495;82;25685;-57
2020/12/29 11:10:26;;;;;;;7.87;2.25;;;;;;;25.27;26.40;100117.52;1736635;81;27606;-57
2020/12/29 11:12:54;;;;;;;13.70;2.40;;;;;;;25.56;25.71;100116.90;1727048;82;25632;-57
2020/12/29 11:15:22;;;;;;;7.12;2.20;;;;;;;24.76;26.47;100118.83;1706162;84;26338;-57
2020/12/29 11:17:50;;;;;;;14.23;2.83;;;;;;;24.48;26.75;100123.21;1717221;82;25653;-57
2020/12/29 11:20:18;;;;;;;11.40;2.58;;;;;;;24.72;25.56;100126.73;1771836;79;25747;-57
2020/12/29 11:22:46;;;;;;;10.50;2.25;;;;;;;24.82;26.42;100127.45;1822359;78;27527;-57
2020/12/29 11:25:15;;;;;;;16.10;2.58;;;;;;;25.07;27.38;100127.61;1753531;81;26585;-56
2020/12/29 11:27:42;;;;;;;9.23;2.00;;;;;;;25.39;26.83;100128.44;1832043;78;25730;-57
2020/12/29 11:30:10;;;;;;;9.83;2.37;;;;;;;25.60;26.84;100132.37;1784487;80;25647;-57
2020/12/29 11:32:38;;;;;;;8.83;2.62;;;;;;;25.71;27.20;100141.61;1794621;78;25703;-57
2020/12/29 11:35:06;;;;;;;7.47;2.17;;;;;;;25.81;25.92;100134.88;1735636;82;28484;-57
2020/12/29 11:37:34;;;;;;;2.10;1.37;;;;;;;25.79;24.28;100135.67;1750750;81;26606;-57
2020/12/29 11:40:03;;;;;;;7.40;1.65;;;;;;;25.50;23.08;100134.96;1739357;81;25733;-57
2020/12/29 11:42:31;;;;;;;15.98;2.42;;;;;;;24.86;25.47;100130.02;1725109;82;25836;-57